sensor_id;sensor_type;location;lat;lon;timestamp;temperature;humidity
66928;DHT22;59882;45.624;11.698;2023-02-21T00:01:02;8.20;71.90
66928;DHT22;59882;45.624;11.698;2023-02-21T00:03:46;8.20;71.60
66928;DHT22;59882;45.624;11.698;2023-02-21T00:06:30;8.20;72.00
66928;DHT22;59882;45.624;11.698;2023-02-21T00:09:14;8.20;71.70
66928;DHT22;59882;45.624;11.698;2023-02-21T00:11:58;8.30;71.70
66928;DHT22;59882;45.624;11.698;2023-02-21T00:14:42;8.30;72.20
66928;DHT22;59882;45.624;11.698;2023-02-21T00:17:26;8.30;72.00
66928;DHT22;59882;45.624;11.698;2023-02-21T00:20:11;8.30;71.80
66928;DHT22;59882;45.624;11.698;2023-02-21T00:22:55;8.30;71.70
66928;DHT22;59882;45.624;11.698;2023-02-21T00:25:39;8.30;72.30
66928;DHT22;59882;45.624;11.698;2023-02-21T00:28:23;8.30;72.10
66928;DHT22;59882;45.624;11.698;2023-02-21T00:31:07;8.30;72.30
66928;DHT22;59882;45.624;11.698;2023-02-21T00:33:51;8.30;72.50
66928;DHT22;59882;45.624;11.698;2023-02-21T00:36:35;8.20;72.30
66928;DHT22;59882;45.624;11.698;2023-02-21T00:39:19;8.20;72.10
66928;DHT22;59882;45.624;11.698;2023-02-21T00:42:03;8.20;72.40
66928;DHT22;59882;45.624;11.698;2023-02-21T00:44:48;8.20;72.90
66928;DHT22;59882;45.624;11.698;2023-02-21T00:47:32;8.20;72.70
66928;DHT22;59882;45.624;11.698;2023-02-21T00:50:16;8.10;72.90
66928;DHT22;59882;45.624;11.698;2023-02-21T00:53:00;8.10;72.90
66928;DHT22;59882;45.624;11.698;2023-02-21T00:55:44;8.20;72.60
66928;DHT22;59882;45.624;11.698;2023-02-21T00:58:28;8.20;72.90
66928;DHT22;59882;45.624;11.698;2023-02-21T01:01:12;8.20;72.70
66928;DHT22;59882;45.624;11.698;2023-02-21T01:03:57;8.20;73.30
66928;DHT22;59882;45.624;11.698;2023-02-21T01:06:41;8.10;73.40
66928;DHT22;59882;45.624;11.698;2023-02-21T01:09:26;8.00;73.50
66928;DHT22;59882;45.624;11.698;2023-02-21T01:12:10;8.00;73.70
66928;DHT22;59882;45.624;11.698;2023-02-21T01:14:55;7.90;73.10
66928;DHT22;59882;45.624;11.698;2023-02-21T01:17:39;7.90;73.30
66928;DHT22;59882;45.624;11.698;2023-02-21T01:20:23;8.00;73.00
66928;DHT22;59882;45.624;11.698;2023-02-21T01:23:07;8.00;72.90
66928;DHT22;59882;45.624;11.698;2023-02-21T01:25:51;8.00;73.80
66928;DHT22;59882;45.624;11.698;2023-02-21T01:28:35;8.00;73.40
66928;DHT22;59882;45.624;11.698;2023-02-21T01:31:20;7.90;73.70
66928;DHT22;59882;45.624;11.698;2023-02-21T01:34:05;7.90;73.80
66928;DHT22;59882;45.624;11.698;2023-02-21T01:36:50;7.90;73.40
66928;DHT22;59882;45.624;11.698;2023-02-21T01:39:34;7.80;73.40
66928;DHT22;59882;45.624;11.698;2023-02-21T01:42:18;7.80;73.20
66928;DHT22;59882;45.624;11.698;2023-02-21T01:45:35;7.80;73.50
66928;DHT22;59882;45.624;11.698;2023-02-21T01:48:23;7.80;73.70
66928;DHT22;59882;45.624;11.698;2023-02-21T01:51:09;7.80;73.90
66928;DHT22;59882;45.624;11.698;2023-02-21T01:53:56;7.70;73.90
66928;DHT22;59882;45.624;11.698;2023-02-21T01:56:40;7.70;73.70
66928;DHT22;59882;45.624;11.698;2023-02-21T01:59:25;7.70;73.60
66928;DHT22;59882;45.624;11.698;2023-02-21T02:02:26;7.70;73.50
66928;DHT22;59882;45.624;11.698;2023-02-21T02:05:11;7.70;73.50
66928;DHT22;59882;45.624;11.698;2023-02-21T02:07:56;7.70;73.40
66928;DHT22;59882;45.624;11.698;2023-02-21T02:10:41;7.70;73.80
66928;DHT22;59882;45.624;11.698;2023-02-21T02:19:49;7.60;73.80
66928;DHT22;59882;45.624;11.698;2023-02-21T02:27:53;7.60;74.10
66928;DHT22;59882;45.624;11.698;2023-02-21T02:30:44;7.50;74.10
66928;DHT22;59882;45.624;11.698;2023-02-21T02:36:14;7.50;74.20
66928;DHT22;59882;45.624;11.698;2023-02-21T02:44:30;7.50;74.40
66928;DHT22;59882;45.624;11.698;2023-02-21T02:46:59;7.50;74.40
66928;DHT22;59882;45.624;11.698;2023-02-21T02:49:28;7.50;74.20
66928;DHT22;59882;45.624;11.698;2023-02-21T02:52:06;7.50;74.50
66928;DHT22;59882;45.624;11.698;2023-02-21T02:54:32;7.60;74.10
66928;DHT22;59882;45.624;11.698;2023-02-21T02:56:59;7.60;74.00
66928;DHT22;59882;45.624;11.698;2023-02-21T02:59:29;7.60;74.00
66928;DHT22;59882;45.624;11.698;2023-02-21T03:01:58;7.50;73.80
66928;DHT22;59882;45.624;11.698;2023-02-21T03:04:46;7.60;73.80
66928;DHT22;59882;45.624;11.698;2023-02-21T03:13:12;7.40;73.90
66928;DHT22;59882;45.624;11.698;2023-02-21T03:15:58;7.40;74.30
66928;DHT22;59882;45.624;11.698;2023-02-21T03:18:34;7.30;73.90
66928;DHT22;59882;45.624;11.698;2023-02-21T03:21:04;7.30;73.90
66928;DHT22;59882;45.624;11.698;2023-02-21T03:23:33;7.40;74.20
66928;DHT22;59882;45.624;11.698;2023-02-21T03:26:03;7.30;73.90
66928;DHT22;59882;45.624;11.698;2023-02-21T03:28:31;7.30;74.10
66928;DHT22;59882;45.624;11.698;2023-02-21T03:30:58;7.30;74.50
66928;DHT22;59882;45.624;11.698;2023-02-21T03:33:24;7.30;74.10
66928;DHT22;59882;45.624;11.698;2023-02-21T03:35:51;7.30;74.00
66928;DHT22;59882;45.624;11.698;2023-02-21T03:38:17;7.30;74.10
66928;DHT22;59882;45.624;11.698;2023-02-21T03:40:43;7.30;74.30
66928;DHT22;59882;45.624;11.698;2023-02-21T03:43:08;7.20;74.20
66928;DHT22;59882;45.624;11.698;2023-02-21T03:45:35;7.10;74.40
66928;DHT22;59882;45.624;11.698;2023-02-21T03:48:02;7.10;74.40
66928;DHT22;59882;45.624;11.698;2023-02-21T03:50:28;7.00;74.40
66928;DHT22;59882;45.624;11.698;2023-02-21T03:52:53;7.00;74.40
66928;DHT22;59882;45.624;11.698;2023-02-21T03:55:19;7.00;74.30
66928;DHT22;59882;45.624;11.698;2023-02-21T03:57:45;6.90;74.60
66928;DHT22;59882;45.624;11.698;2023-02-21T04:00:12;6.90;74.70
66928;DHT22;59882;45.624;11.698;2023-02-21T04:02:38;6.90;74.40
66928;DHT22;59882;45.624;11.698;2023-02-21T04:05:04;6.90;74.50
66928;DHT22;59882;45.624;11.698;2023-02-21T04:07:30;6.90;74.30
66928;DHT22;59882;45.624;11.698;2023-02-21T04:09:56;6.90;74.40
66928;DHT22;59882;45.624;11.698;2023-02-21T04:12:21;6.90;74.60
66928;DHT22;59882;45.624;11.698;2023-02-21T04:14:47;6.90;74.40
66928;DHT22;59882;45.624;11.698;2023-02-21T04:17:13;6.90;74.40
66928;DHT22;59882;45.624;11.698;2023-02-21T04:19:40;6.90;74.60
66928;DHT22;59882;45.624;11.698;2023-02-21T04:22:06;6.80;75.10
66928;DHT22;59882;45.624;11.698;2023-02-21T04:24:31;6.80;75.40
66928;DHT22;59882;45.624;11.698;2023-02-21T04:26:57;6.70;75.70
66928;DHT22;59882;45.624;11.698;2023-02-21T04:29:23;6.60;75.70
66928;DHT22;59882;45.624;11.698;2023-02-21T04:31:49;6.50;75.30
66928;DHT22;59882;45.624;11.698;2023-02-21T04:34:15;6.60;75.30
66928;DHT22;59882;45.624;11.698;2023-02-21T04:36:41;6.60;75.30
66928;DHT22;59882;45.624;11.698;2023-02-21T04:39:07;6.50;75.50
66928;DHT22;59882;45.624;11.698;2023-02-21T04:41:33;6.50;75.50
66928;DHT22;59882;45.624;11.698;2023-02-21T04:43:59;6.60;75.30
66928;DHT22;59882;45.624;11.698;2023-02-21T04:46:24;6.50;75.10
66928;DHT22;59882;45.624;11.698;2023-02-21T04:48:51;6.50;75.10
66928;DHT22;59882;45.624;11.698;2023-02-21T04:51:20;6.60;75.50
66928;DHT22;59882;45.624;11.698;2023-02-21T04:53:47;6.50;75.30
66928;DHT22;59882;45.624;11.698;2023-02-21T04:56:13;6.50;75.30
66928;DHT22;59882;45.624;11.698;2023-02-21T04:58:40;6.50;75.50
66928;DHT22;59882;45.624;11.698;2023-02-21T05:01:05;6.40;75.60
66928;DHT22;59882;45.624;11.698;2023-02-21T05:03:31;6.30;75.60
66928;DHT22;59882;45.624;11.698;2023-02-21T05:05:57;6.30;75.60
66928;DHT22;59882;45.624;11.698;2023-02-21T05:08:22;6.30;75.90
66928;DHT22;59882;45.624;11.698;2023-02-21T05:10:48;6.30;76.00
66928;DHT22;59882;45.624;11.698;2023-02-21T05:13:15;6.30;76.10
66928;DHT22;59882;45.624;11.698;2023-02-21T05:15:41;6.30;76.30
66928;DHT22;59882;45.624;11.698;2023-02-21T05:18:07;6.20;76.60
66928;DHT22;59882;45.624;11.698;2023-02-21T05:20:53;6.20;76.50
66928;DHT22;59882;45.624;11.698;2023-02-21T05:23:19;6.10;76.60
66928;DHT22;59882;45.624;11.698;2023-02-21T05:26:07;6.10;76.60
66928;DHT22;59882;45.624;11.698;2023-02-21T05:28:33;6.00;76.40
66928;DHT22;59882;45.624;11.698;2023-02-21T05:30:58;6.00;76.60
66928;DHT22;59882;45.624;11.698;2023-02-21T05:33:24;6.00;76.60
66928;DHT22;59882;45.624;11.698;2023-02-21T05:35:50;5.90;76.50
66928;DHT22;59882;45.624;11.698;2023-02-21T05:38:17;6.00;76.20
66928;DHT22;59882;45.624;11.698;2023-02-21T05:40:43;5.90;76.40
66928;DHT22;59882;45.624;11.698;2023-02-21T05:43:09;5.90;76.50
66928;DHT22;59882;45.624;11.698;2023-02-21T05:45:35;5.90;76.70
66928;DHT22;59882;45.624;11.698;2023-02-21T05:48:00;6.00;76.90
66928;DHT22;59882;45.624;11.698;2023-02-21T05:50:28;6.00;76.90
66928;DHT22;59882;45.624;11.698;2023-02-21T05:52:54;5.90;76.70
66928;DHT22;59882;45.624;11.698;2023-02-21T05:55:20;5.90;76.40
66928;DHT22;59882;45.624;11.698;2023-02-21T05:57:46;5.90;76.60
66928;DHT22;59882;45.624;11.698;2023-02-21T06:00:30;5.90;77.00
66928;DHT22;59882;45.624;11.698;2023-02-21T06:02:56;5.90;77.20
66928;DHT22;59882;45.624;11.698;2023-02-21T06:05:22;5.90;77.10
66928;DHT22;59882;45.624;11.698;2023-02-21T06:07:48;5.90;77.00
66928;DHT22;59882;45.624;11.698;2023-02-21T06:10:15;6.00;76.90
66928;DHT22;59882;45.624;11.698;2023-02-21T06:12:41;6.00;76.80
66928;DHT22;59882;45.624;11.698;2023-02-21T06:15:07;6.10;77.00
66928;DHT22;59882;45.624;11.698;2023-02-21T06:17:35;6.10;77.20
66928;DHT22;59882;45.624;11.698;2023-02-21T06:20:01;6.00;77.10
66928;DHT22;59882;45.624;11.698;2023-02-21T06:22:26;6.00;77.20
66928;DHT22;59882;45.624;11.698;2023-02-21T06:24:52;6.00;76.80
66928;DHT22;59882;45.624;11.698;2023-02-21T06:27:17;6.10;76.60
66928;DHT22;59882;45.624;11.698;2023-02-21T06:29:43;6.10;76.60
66928;DHT22;59882;45.624;11.698;2023-02-21T06:32:09;6.10;76.40
66928;DHT22;59882;45.624;11.698;2023-02-21T06:34:34;6.10;76.60
66928;DHT22;59882;45.624;11.698;2023-02-21T06:37:00;6.10;76.90
66928;DHT22;59882;45.624;11.698;2023-02-21T06:39:26;6.10;76.80
66928;DHT22;59882;45.624;11.698;2023-02-21T06:41:51;6.10;76.70
66928;DHT22;59882;45.624;11.698;2023-02-21T06:44:18;6.10;76.60
66928;DHT22;59882;45.624;11.698;2023-02-21T06:46:44;6.00;76.50
66928;DHT22;59882;45.624;11.698;2023-02-21T06:49:11;6.00;76.60
66928;DHT22;59882;45.624;11.698;2023-02-21T06:51:39;6.00;76.90
66928;DHT22;59882;45.624;11.698;2023-02-21T06:54:05;5.90;77.10
66928;DHT22;59882;45.624;11.698;2023-02-21T06:56:34;5.90;76.90
66928;DHT22;59882;45.624;11.698;2023-02-21T06:59:00;5.90;77.10
66928;DHT22;59882;45.624;11.698;2023-02-21T07:01:27;5.90;76.90
66928;DHT22;59882;45.624;11.698;2023-02-21T07:03:54;5.90;77.30
66928;DHT22;59882;45.624;11.698;2023-02-21T07:06:20;5.90;77.40
66928;DHT22;59882;45.624;11.698;2023-02-21T07:08:46;5.90;77.50
66928;DHT22;59882;45.624;11.698;2023-02-21T07:11:12;5.90;77.40
66928;DHT22;59882;45.624;11.698;2023-02-21T07:13:38;6.00;77.30
66928;DHT22;59882;45.624;11.698;2023-02-21T07:16:04;6.00;77.40
66928;DHT22;59882;45.624;11.698;2023-02-21T07:18:30;6.10;77.40
66928;DHT22;59882;45.624;11.698;2023-02-21T07:20:55;6.10;77.70
66928;DHT22;59882;45.624;11.698;2023-02-21T07:23:21;6.20;77.60
66928;DHT22;59882;45.624;11.698;2023-02-21T07:25:47;6.20;78.20
66928;DHT22;59882;45.624;11.698;2023-02-21T07:28:12;6.30;78.10
66928;DHT22;59882;45.624;11.698;2023-02-21T07:30:38;6.30;77.70
66928;DHT22;59882;45.624;11.698;2023-02-21T07:33:04;6.30;77.80
66928;DHT22;59882;45.624;11.698;2023-02-21T07:35:29;6.40;77.90
66928;DHT22;59882;45.624;11.698;2023-02-21T07:37:55;6.40;78.70
66928;DHT22;59882;45.624;11.698;2023-02-21T07:40:21;6.50;78.20
66928;DHT22;59882;45.624;11.698;2023-02-21T07:42:46;6.50;78.20
66928;DHT22;59882;45.624;11.698;2023-02-21T07:45:13;6.60;78.70
66928;DHT22;59882;45.624;11.698;2023-02-21T07:47:39;6.60;78.80
66928;DHT22;59882;45.624;11.698;2023-02-21T07:50:05;6.70;78.20
66928;DHT22;59882;45.624;11.698;2023-02-21T07:52:32;6.80;78.50
66928;DHT22;59882;45.624;11.698;2023-02-21T07:54:57;6.80;78.70
66928;DHT22;59882;45.624;11.698;2023-02-21T07:57:23;6.90;78.80
66928;DHT22;59882;45.624;11.698;2023-02-21T07:59:49;6.90;78.70
66928;DHT22;59882;45.624;11.698;2023-02-21T08:02:14;6.90;78.90
66928;DHT22;59882;45.624;11.698;2023-02-21T08:04:40;7.00;79.10
66928;DHT22;59882;45.624;11.698;2023-02-21T08:07:07;7.00;78.90
66928;DHT22;59882;45.624;11.698;2023-02-21T08:09:34;7.10;78.90
66928;DHT22;59882;45.624;11.698;2023-02-21T08:12:00;7.10;78.80
66928;DHT22;59882;45.624;11.698;2023-02-21T08:14:26;7.10;78.80
66928;DHT22;59882;45.624;11.698;2023-02-21T08:16:51;7.20;78.70
66928;DHT22;59882;45.624;11.698;2023-02-21T08:19:17;7.30;78.70
66928;DHT22;59882;45.624;11.698;2023-02-21T08:21:47;7.30;79.10
66928;DHT22;59882;45.624;11.698;2023-02-21T08:24:13;7.30;79.10
66928;DHT22;59882;45.624;11.698;2023-02-21T08:26:39;7.40;78.90
66928;DHT22;59882;45.624;11.698;2023-02-21T08:29:09;7.40;79.00
66928;DHT22;59882;45.624;11.698;2023-02-21T08:31:36;7.50;79.20
66928;DHT22;59882;45.624;11.698;2023-02-21T08:34:02;7.60;79.50
66928;DHT22;59882;45.624;11.698;2023-02-21T08:36:33;7.70;79.50
66928;DHT22;59882;45.624;11.698;2023-02-21T08:38:59;7.70;79.80
66928;DHT22;59882;45.624;11.698;2023-02-21T08:41:25;7.80;79.90
66928;DHT22;59882;45.624;11.698;2023-02-21T08:43:51;7.80;80.30
66928;DHT22;59882;45.624;11.698;2023-02-21T08:46:16;7.90;79.90
66928;DHT22;59882;45.624;11.698;2023-02-21T08:48:42;8.00;80.00
66928;DHT22;59882;45.624;11.698;2023-02-21T08:51:08;8.00;79.70
66928;DHT22;59882;45.624;11.698;2023-02-21T08:53:34;8.10;79.60
66928;DHT22;59882;45.624;11.698;2023-02-21T08:56:00;8.20;79.30
66928;DHT22;59882;45.624;11.698;2023-02-21T08:58:25;8.20;79.10
66928;DHT22;59882;45.624;11.698;2023-02-21T09:00:51;8.30;79.20
66928;DHT22;59882;45.624;11.698;2023-02-21T09:03:17;8.40;79.20
66928;DHT22;59882;45.624;11.698;2023-02-21T09:05:42;8.50;78.90
66928;DHT22;59882;45.624;11.698;2023-02-21T09:08:08;8.60;79.40
66928;DHT22;59882;45.624;11.698;2023-02-21T09:10:35;8.70;79.10
66928;DHT22;59882;45.624;11.698;2023-02-21T09:13:02;8.80;78.80
66928;DHT22;59882;45.624;11.698;2023-02-21T09:15:28;8.80;78.50
66928;DHT22;59882;45.624;11.698;2023-02-21T09:17:54;8.90;78.40
66928;DHT22;59882;45.624;11.698;2023-02-21T09:20:22;9.00;78.40
66928;DHT22;59882;45.624;11.698;2023-02-21T09:22:48;9.10;78.70
66928;DHT22;59882;45.624;11.698;2023-02-21T09:25:17;9.10;78.50
66928;DHT22;59882;45.624;11.698;2023-02-21T09:27:43;9.10;78.50
66928;DHT22;59882;45.624;11.698;2023-02-21T09:30:11;9.20;78.30
66928;DHT22;59882;45.624;11.698;2023-02-21T09:32:38;9.30;78.30
66928;DHT22;59882;45.624;11.698;2023-02-21T09:35:05;9.40;78.10
66928;DHT22;59882;45.624;11.698;2023-02-21T09:37:31;9.50;78.00
66928;DHT22;59882;45.624;11.698;2023-02-21T09:39:57;9.60;77.80
66928;DHT22;59882;45.624;11.698;2023-02-21T09:42:27;9.70;77.90
66928;DHT22;59882;45.624;11.698;2023-02-21T09:44:54;9.80;77.70
66928;DHT22;59882;45.624;11.698;2023-02-21T09:47:29;9.90;77.70
66928;DHT22;59882;45.624;11.698;2023-02-21T09:50:05;10.00;77.70
66928;DHT22;59882;45.624;11.698;2023-02-21T09:52:36;10.10;77.50
66928;DHT22;59882;45.624;11.698;2023-02-21T09:57:38;10.30;77.30
66928;DHT22;59882;45.624;11.698;2023-02-21T10:00:18;10.40;77.20
66928;DHT22;59882;45.624;11.698;2023-02-21T10:02:50;10.50;76.80
66928;DHT22;59882;45.624;11.698;2023-02-21T10:05:41;10.60;76.60
66928;DHT22;59882;45.624;11.698;2023-02-21T10:10:55;10.80;75.90
66928;DHT22;59882;45.624;11.698;2023-02-21T10:13:40;10.90;75.60
66928;DHT22;59882;45.624;11.698;2023-02-21T10:16:28;11.00;75.40
66928;DHT22;59882;45.624;11.698;2023-02-21T10:19:20;11.10;75.30
66928;DHT22;59882;45.624;11.698;2023-02-21T10:21:48;11.20;75.30
66928;DHT22;59882;45.624;11.698;2023-02-21T10:24:20;11.30;75.20
66928;DHT22;59882;45.624;11.698;2023-02-21T10:27:07;11.40;74.60
66928;DHT22;59882;45.624;11.698;2023-02-21T10:32:02;11.60;74.10
66928;DHT22;59882;45.624;11.698;2023-02-21T10:34:30;11.70;73.40
66928;DHT22;59882;45.624;11.698;2023-02-21T10:37:01;11.80;73.60
66928;DHT22;59882;45.624;11.698;2023-02-21T10:39:38;11.90;73.60
66928;DHT22;59882;45.624;11.698;2023-02-21T10:42:10;11.90;73.30
66928;DHT22;59882;45.624;11.698;2023-02-21T10:44:38;12.00;73.10
66928;DHT22;59882;45.624;11.698;2023-02-21T10:47:14;12.10;72.70
66928;DHT22;59882;45.624;11.698;2023-02-21T10:49:51;12.20;73.00
66928;DHT22;59882;45.624;11.698;2023-02-21T10:52:18;12.30;72.30
66928;DHT22;59882;45.624;11.698;2023-02-21T10:57:27;12.40;72.40
66928;DHT22;59882;45.624;11.698;2023-02-21T10:59:55;12.40;71.80
66928;DHT22;59882;45.624;11.698;2023-02-21T11:02:33;12.40;71.30
66928;DHT22;59882;45.624;11.698;2023-02-21T11:05:18;12.40;71.30
66928;DHT22;59882;45.624;11.698;2023-02-21T11:08:05;12.40;71.70
66928;DHT22;59882;45.624;11.698;2023-02-21T11:10:34;12.40;71.50
66928;DHT22;59882;45.624;11.698;2023-02-21T11:13:06;12.40;71.60
66928;DHT22;59882;45.624;11.698;2023-02-21T11:15:32;12.50;71.60
66928;DHT22;59882;45.624;11.698;2023-02-21T11:18:13;12.50;71.60
66928;DHT22;59882;45.624;11.698;2023-02-21T11:20:39;12.60;71.50
66928;DHT22;59882;45.624;11.698;2023-02-21T11:23:24;12.60;71.20
66928;DHT22;59882;45.624;11.698;2023-02-21T11:26:03;12.70;70.90
66928;DHT22;59882;45.624;11.698;2023-02-21T11:28:39;12.70;70.90
66928;DHT22;59882;45.624;11.698;2023-02-21T11:31:27;12.70;70.80
66928;DHT22;59882;45.624;11.698;2023-02-21T11:33:57;12.60;70.60
66928;DHT22;59882;45.624;11.698;2023-02-21T11:36:32;12.60;71.10
66928;DHT22;59882;45.624;11.698;2023-02-21T11:39:04;12.50;71.40
66928;DHT22;59882;45.624;11.698;2023-02-21T11:44:38;12.40;71.40
66928;DHT22;59882;45.624;11.698;2023-02-21T11:47:33;12.40;71.70
66928;DHT22;59882;45.624;11.698;2023-02-21T11:53:00;12.60;71.70
66928;DHT22;59882;45.624;11.698;2023-02-21T11:55:28;12.80;71.20
66928;DHT22;59882;45.624;11.698;2023-02-21T12:00:50;12.90;71.40
66928;DHT22;59882;45.624;11.698;2023-02-21T12:04:03;13.00;71.40
66928;DHT22;59882;45.624;11.698;2023-02-21T12:09:16;13.30;69.80
66928;DHT22;59882;45.624;11.698;2023-02-21T12:12:08;13.40;68.70
66928;DHT22;59882;45.624;11.698;2023-02-21T12:14:47;13.40;68.90
66928;DHT22;59882;45.624;11.698;2023-02-21T12:21:04;13.70;68.10
66928;DHT22;59882;45.624;11.698;2023-02-21T12:26:10;13.90;67.70
66928;DHT22;59882;45.624;11.698;2023-02-21T12:28:49;13.90;67.10
66928;DHT22;59882;45.624;11.698;2023-02-21T12:37:22;13.80;67.20
66928;DHT22;59882;45.624;11.698;2023-02-21T12:42:36;13.80;67.30
66928;DHT22;59882;45.624;11.698;2023-02-21T12:48:30;13.80;67.20
66928;DHT22;59882;45.624;11.698;2023-02-21T12:51:08;13.70;67.00
66928;DHT22;59882;45.624;11.698;2023-02-21T12:56:32;13.50;67.50
66928;DHT22;59882;45.624;11.698;2023-02-21T13:01:41;13.40;67.60
66928;DHT22;59882;45.624;11.698;2023-02-21T13:09:59;13.10;68.40
66928;DHT22;59882;45.624;11.698;2023-02-21T13:12:39;13.00;68.60
66928;DHT22;59882;45.624;11.698;2023-02-21T13:15:24;13.00;68.80
66928;DHT22;59882;45.624;11.698;2023-02-21T13:18:06;12.90;68.90
66928;DHT22;59882;45.624;11.698;2023-02-21T13:20:48;12.90;69.40
66928;DHT22;59882;45.624;11.698;2023-02-21T13:29:17;12.90;69.60
66928;DHT22;59882;45.624;11.698;2023-02-21T13:31:44;12.90;69.60
66928;DHT22;59882;45.624;11.698;2023-02-21T13:34:12;12.90;69.80
66928;DHT22;59882;45.624;11.698;2023-02-21T13:36:44;12.80;69.90
66928;DHT22;59882;45.624;11.698;2023-02-21T13:39:12;12.90;69.80
66928;DHT22;59882;45.624;11.698;2023-02-21T13:41:45;12.80;70.00
66928;DHT22;59882;45.624;11.698;2023-02-21T13:44:28;12.80;70.10
66928;DHT22;59882;45.624;11.698;2023-02-21T13:46:58;12.80;70.30
66928;DHT22;59882;45.624;11.698;2023-02-21T13:49:42;12.80;70.20
66928;DHT22;59882;45.624;11.698;2023-02-21T14:10:55;12.40;70.90
66928;DHT22;59882;45.624;11.698;2023-02-21T14:13:31;12.40;70.70
66928;DHT22;59882;45.624;11.698;2023-02-21T14:16:07;12.40;70.60
66928;DHT22;59882;45.624;11.698;2023-02-21T14:18:54;12.40;70.70
66928;DHT22;59882;45.624;11.698;2023-02-21T14:21:40;12.40;71.10
66928;DHT22;59882;45.624;11.698;2023-02-21T14:29:43;12.30;70.60
66928;DHT22;59882;45.624;11.698;2023-02-21T14:37:36;12.30;71.30
66928;DHT22;59882;45.624;11.698;2023-02-21T15:05:33;12.20;72.40
66928;DHT22;59882;45.624;11.698;2023-02-21T15:08:22;12.10;72.30
66928;DHT22;59882;45.624;11.698;2023-02-21T15:10:53;12.10;72.20
66928;DHT22;59882;45.624;11.698;2023-02-21T15:16:12;12.10;72.20
66928;DHT22;59882;45.624;11.698;2023-02-21T15:18:40;12.00;72.40
66928;DHT22;59882;45.624;11.698;2023-02-21T15:21:15;12.00;72.20
66928;DHT22;59882;45.624;11.698;2023-02-21T15:24:12;12.00;72.10
66928;DHT22;59882;45.624;11.698;2023-02-21T15:26:39;11.90;72.00
66928;DHT22;59882;45.624;11.698;2023-02-21T15:29:11;12.00;72.00
66928;DHT22;59882;45.624;11.698;2023-02-21T15:31:42;11.90;71.90
66928;DHT22;59882;45.624;11.698;2023-02-21T15:34:40;11.90;72.00
66928;DHT22;59882;45.624;11.698;2023-02-21T15:37:15;11.90;72.10
66928;DHT22;59882;45.624;11.698;2023-02-21T15:39:51;11.90;72.00
66928;DHT22;59882;45.624;11.698;2023-02-21T15:42:17;11.90;72.20
66928;DHT22;59882;45.624;11.698;2023-02-21T15:44:56;11.90;72.40
66928;DHT22;59882;45.624;11.698;2023-02-21T15:47:25;11.80;72.50
66928;DHT22;59882;45.624;11.698;2023-02-21T15:50:06;11.80;72.40
66928;DHT22;59882;45.624;11.698;2023-02-21T15:52:41;11.80;72.40
66928;DHT22;59882;45.624;11.698;2023-02-21T16:03:25;11.70;73.00
66928;DHT22;59882;45.624;11.698;2023-02-21T16:05:51;11.70;73.00
66928;DHT22;59882;45.624;11.698;2023-02-21T16:08:17;11.70;73.20
66928;DHT22;59882;45.624;11.698;2023-02-21T16:10:44;11.70;73.40
66928;DHT22;59882;45.624;11.698;2023-02-21T16:13:10;11.60;73.30
66928;DHT22;59882;45.624;11.698;2023-02-21T16:15:37;11.60;73.40
66928;DHT22;59882;45.624;11.698;2023-02-21T16:18:07;11.60;73.50
66928;DHT22;59882;45.624;11.698;2023-02-21T16:28:31;11.50;73.90
66928;DHT22;59882;45.624;11.698;2023-02-21T16:30:59;11.50;74.00
66928;DHT22;59882;45.624;11.698;2023-02-21T16:33:26;11.50;74.00
66928;DHT22;59882;45.624;11.698;2023-02-21T16:35:52;11.50;74.10
66928;DHT22;59882;45.624;11.698;2023-02-21T16:38:21;11.40;74.00
66928;DHT22;59882;45.624;11.698;2023-02-21T16:40:47;11.40;74.20
66928;DHT22;59882;45.624;11.698;2023-02-21T16:43:24;11.40;74.50
66928;DHT22;59882;45.624;11.698;2023-02-21T16:45:52;11.40;74.40
66928;DHT22;59882;45.624;11.698;2023-02-21T16:48:24;11.40;74.40
66928;DHT22;59882;45.624;11.698;2023-02-21T16:50:53;11.30;74.40
66928;DHT22;59882;45.624;11.698;2023-02-21T16:53:20;11.40;74.40
66928;DHT22;59882;45.624;11.698;2023-02-21T16:55:47;11.40;74.50
66928;DHT22;59882;45.624;11.698;2023-02-21T16:58:17;11.30;74.60
66928;DHT22;59882;45.624;11.698;2023-02-21T17:00:45;11.30;74.60
66928;DHT22;59882;45.624;11.698;2023-02-21T17:03:11;11.30;74.50
66928;DHT22;59882;45.624;11.698;2023-02-21T17:05:37;11.30;74.40
66928;DHT22;59882;45.624;11.698;2023-02-21T17:08:03;11.30;74.40
66928;DHT22;59882;45.624;11.698;2023-02-21T17:10:29;11.30;74.50
66928;DHT22;59882;45.624;11.698;2023-02-21T17:12:56;11.30;74.50
66928;DHT22;59882;45.624;11.698;2023-02-21T17:15:22;11.30;74.40
66928;DHT22;59882;45.624;11.698;2023-02-21T17:17:48;11.30;74.60
66928;DHT22;59882;45.624;11.698;2023-02-21T17:20:16;11.30;74.70
66928;DHT22;59882;45.624;11.698;2023-02-21T17:22:42;11.30;74.90
66928;DHT22;59882;45.624;11.698;2023-02-21T17:25:08;11.30;75.10
66928;DHT22;59882;45.624;11.698;2023-02-21T17:27:33;11.30;75.10
66928;DHT22;59882;45.624;11.698;2023-02-21T17:29:59;11.30;75.10
66928;DHT22;59882;45.624;11.698;2023-02-21T17:32:25;11.30;75.70
66928;DHT22;59882;45.624;11.698;2023-02-21T17:34:51;11.30;76.00
66928;DHT22;59882;45.624;11.698;2023-02-21T17:37:17;11.20;75.70
66928;DHT22;59882;45.624;11.698;2023-02-21T17:39:42;11.20;75.80
66928;DHT22;59882;45.624;11.698;2023-02-21T17:42:08;11.20;76.20
66928;DHT22;59882;45.624;11.698;2023-02-21T17:44:34;11.20;76.00
66928;DHT22;59882;45.624;11.698;2023-02-21T17:47:02;11.20;76.10
66928;DHT22;59882;45.624;11.698;2023-02-21T17:49:32;11.10;76.40
66928;DHT22;59882;45.624;11.698;2023-02-21T17:51:57;11.10;76.20
66928;DHT22;59882;45.624;11.698;2023-02-21T17:54:24;11.10;76.30
66928;DHT22;59882;45.624;11.698;2023-02-21T17:56:50;11.10;76.10
66928;DHT22;59882;45.624;11.698;2023-02-21T17:59:16;11.10;76.10
66928;DHT22;59882;45.624;11.698;2023-02-21T18:01:42;11.10;76.20
66928;DHT22;59882;45.624;11.698;2023-02-21T18:04:09;11.10;76.20
66928;DHT22;59882;45.624;11.698;2023-02-21T18:06:34;11.10;76.60
66928;DHT22;59882;45.624;11.698;2023-02-21T18:09:00;11.10;76.70
66928;DHT22;59882;45.624;11.698;2023-02-21T18:11:27;11.10;76.70
66928;DHT22;59882;45.624;11.698;2023-02-21T18:13:55;11.10;76.80
66928;DHT22;59882;45.624;11.698;2023-02-21T18:16:21;11.10;76.70
66928;DHT22;59882;45.624;11.698;2023-02-21T18:18:46;11.10;76.60
66928;DHT22;59882;45.624;11.698;2023-02-21T18:21:13;11.10;76.50
66928;DHT22;59882;45.624;11.698;2023-02-21T18:23:43;11.10;76.60
66928;DHT22;59882;45.624;11.698;2023-02-21T18:26:09;11.10;76.60
66928;DHT22;59882;45.624;11.698;2023-02-21T18:28:34;11.10;76.80
66928;DHT22;59882;45.624;11.698;2023-02-21T18:31:00;11.10;76.90